createdAt,value
2023-05-14T00:01:54.496Z,100514.16
2023-05-14T00:04:21.504Z,100472.78
2023-05-14T00:06:48.317Z,100445.88
2023-05-14T00:09:16.150Z,100481.69
2023-05-14T00:11:42.933Z,100455.72
2023-05-14T00:14:10.583Z,100481.06
2023-05-14T00:16:37.499Z,100489.81
2023-05-14T00:19:05.868Z,100480.09
2023-05-14T00:21:32.745Z,100511.72
2023-05-14T00:24:01.209Z,100498.28
2023-05-14T00:26:28.775Z,100466.44
2023-05-14T00:28:55.546Z,100492.59
2023-05-14T00:31:23.005Z,100480.25
2023-05-14T00:33:49.887Z,100460.94
2023-05-14T00:36:16.945Z,100486.44
2023-05-14T00:38:43.678Z,100485.31
2023-05-14T00:41:10.840Z,100406.28
2023-05-14T00:43:37.594Z,100412.88
2023-05-14T00:46:04.513Z,100414.53
2023-05-14T00:48:31.220Z,100477.34
2023-05-14T00:50:59.859Z,100413.91
2023-05-14T00:53:26.856Z,100474.31
2023-05-14T00:55:53.745Z,100453.34
2023-05-14T00:58:20.517Z,100487.09
2023-05-14T01:00:47.501Z,100393.78
2023-05-14T01:03:16.417Z,100479.63
2023-05-14T01:05:46.108Z,100486.47
2023-05-14T01:08:16.107Z,100489.53
2023-05-14T01:10:51.294Z,100493.09
2023-05-14T01:13:55.321Z,100499.91
2023-05-14T01:16:22.157Z,100451.72
2023-05-14T01:18:49.346Z,100417.91
2023-05-14T01:21:40.864Z,100475.09
2023-05-14T01:24:09.512Z,100480.63
2023-05-14T01:26:38.956Z,100465.81
2023-05-14T01:29:14.251Z,100480.16
2023-05-14T01:31:41.224Z,100466.81
2023-05-14T01:34:08.710Z,100446.38
2023-05-14T01:36:35.482Z,100462.94
2023-05-14T01:39:03.872Z,100447.34
2023-05-14T01:41:31.066Z,100464.56
2023-05-14T01:43:57.768Z,100453.84
2023-05-14T01:46:25.309Z,100445.22
2023-05-14T01:48:52.597Z,100389.91
2023-05-14T01:51:19.327Z,100468.44
2023-05-14T01:53:46.281Z,100459.22
2023-05-14T01:56:13.040Z,100381.81
2023-05-14T01:58:39.795Z,100431.13
2023-05-14T02:01:06.621Z,100468.81
2023-05-14T02:03:33.635Z,100469.25
2023-05-14T02:06:00.427Z,100465.19
2023-05-14T02:08:27.683Z,100442.59
2023-05-14T02:10:55.755Z,100440.88
2023-05-14T02:13:25.657Z,100459.16
2023-05-14T02:15:52.724Z,100460.03
2023-05-14T02:18:19.452Z,100456.91
2023-05-14T02:20:47.458Z,100446.38
2023-05-14T02:23:14.622Z,100472.97
2023-05-14T02:25:42.990Z,100489.03
2023-05-14T02:28:09.775Z,100441.16
2023-05-14T02:30:36.635Z,100476.34
2023-05-14T02:33:04.092Z,100404.16
2023-05-14T02:35:31.337Z,100456.09
2023-05-14T02:37:59.654Z,100430.16
2023-05-14T02:40:28.070Z,100407.84
2023-05-14T02:42:54.715Z,100451.25
2023-05-14T02:45:21.645Z,100435.19
2023-05-14T02:47:48.859Z,100455.78
2023-05-14T02:50:16.525Z,100397.63
2023-05-14T02:52:43.896Z,100448.63
2023-05-14T02:55:11.740Z,100425.88
2023-05-14T02:57:38.772Z,100470.69
2023-05-14T03:00:06.741Z,100432.38
2023-05-14T03:02:37.033Z,100472.13
2023-05-14T03:05:04.593Z,100446.03
2023-05-14T03:07:31.338Z,100475.66
2023-05-14T03:10:00.438Z,100401.16
2023-05-14T03:12:27.346Z,100436.25
2023-05-14T03:14:54.480Z,100479.44
2023-05-14T03:17:22.251Z,100431.03
2023-05-14T03:19:51.684Z,100464.34
2023-05-14T03:22:19.153Z,100478.47
2023-05-14T03:24:47.830Z,100460.75
2023-05-14T03:27:14.580Z,100480.09
2023-05-14T03:29:41.201Z,100479.56
2023-05-14T03:32:08.796Z,100457.56
2023-05-14T03:34:35.644Z,100462.25
2023-05-14T03:37:02.863Z,100452.16
2023-05-14T03:39:30.976Z,100441.16
2023-05-14T03:41:59.162Z,100410.09
2023-05-14T03:44:26.013Z,100473.44
2023-05-14T03:46:53.910Z,100400.81
2023-05-14T03:49:20.662Z,100432.19
2023-05-14T03:51:47.792Z,100455.25
2023-05-14T03:54:14.566Z,100432.63
2023-05-14T03:56:41.651Z,100452.97
2023-05-14T03:59:09.222Z,100383.81
2023-05-14T04:01:36.582Z,100442.56
2023-05-14T04:04:03.420Z,100443.91
2023-05-14T04:06:30.231Z,100426.00
2023-05-14T04:09:00.133Z,100457.66
2023-05-14T04:11:27.070Z,100447.47
2023-05-14T04:13:54.319Z,100415.59
2023-05-14T04:16:22.570Z,100432.63
2023-05-14T04:18:49.451Z,100465.13
2023-05-14T04:21:17.541Z,100470.63
2023-05-14T04:23:44.310Z,100443.63
2023-05-14T04:26:11.811Z,100463.50
2023-05-14T04:28:38.617Z,100409.94
2023-05-14T04:31:05.982Z,100469.63
2023-05-14T04:33:33.547Z,100465.75
2023-05-14T04:36:00.267Z,100460.75
2023-05-14T04:38:27.334Z,100436.19
2023-05-14T04:40:55.465Z,100481.00
2023-05-14T04:43:22.137Z,100473.53
2023-05-14T04:45:49.674Z,100472.69
2023-05-14T04:48:16.516Z,100431.28
2023-05-14T04:50:44.304Z,100462.09
2023-05-14T05:00:13.627Z,100491.38
2023-05-14T05:02:43.440Z,100474.97
2023-05-14T05:05:10.373Z,100465.50
2023-05-14T05:07:37.092Z,100492.63
2023-05-14T05:10:04.631Z,100474.97
2023-05-14T05:12:31.724Z,100462.88
2023-05-14T05:14:58.726Z,100426.88
2023-05-14T05:17:25.855Z,100463.88
2023-05-14T05:19:54.463Z,100461.75
2023-05-14T05:22:21.348Z,100457.88
2023-05-14T05:24:49.904Z,100482.25
2023-05-14T05:27:16.996Z,100499.63
2023-05-14T05:29:46.494Z,100486.13
2023-05-14T05:32:13.750Z,100500.25
2023-05-14T05:34:41.332Z,100423.41
2023-05-14T05:37:12.689Z,100496.50
2023-05-14T05:39:42.094Z,100411.88
2023-05-14T05:42:09.011Z,100457.81
2023-05-14T05:44:35.819Z,100505.88
2023-05-14T05:47:02.705Z,100472.63
2023-05-14T05:49:29.573Z,100452.00
2023-05-14T05:51:58.722Z,100474.75
2023-05-14T05:54:25.848Z,100476.34
2023-05-14T05:56:52.740Z,100442.75
2023-05-14T05:59:19.485Z,100471.00
2023-05-14T06:01:46.537Z,100461.25
2023-05-14T06:04:13.489Z,100485.50
2023-05-14T06:06:40.527Z,100452.66
2023-05-14T06:09:09.164Z,100481.34
2023-05-14T06:11:36.177Z,100454.03
2023-05-14T06:14:04.645Z,100472.59
2023-05-14T06:16:31.467Z,100457.91
2023-05-14T06:18:58.259Z,100474.28
2023-05-14T06:21:25.132Z,100464.63
2023-05-14T06:23:51.912Z,100471.88
2023-05-14T06:26:18.683Z,100428.75
2023-05-14T06:28:45.429Z,100425.31
2023-05-14T06:31:12.394Z,100435.44
2023-05-14T06:33:39.341Z,100433.63
2023-05-14T06:36:07.045Z,100373.72
2023-05-14T06:38:34.009Z,100396.97
2023-05-14T06:41:00.836Z,100420.34
2023-05-14T06:43:27.585Z,100436.25
2023-05-14T06:45:54.661Z,100450.63
2023-05-14T06:48:21.712Z,100449.50
2023-05-14T06:50:49.275Z,100479.16
2023-05-14T06:53:16.208Z,100463.56
2023-05-14T06:55:43.277Z,100432.31
2023-05-14T06:58:10.303Z,100475.16
2023-05-14T07:00:38.584Z,100475.16
2023-05-14T07:03:06.875Z,100414.03
2023-05-14T07:05:33.797Z,100412.78
2023-05-14T07:08:00.631Z,100455.66
2023-05-14T07:10:27.474Z,100455.41
2023-05-14T07:12:54.650Z,100479.09
2023-05-14T07:15:21.542Z,100416.03
2023-05-14T07:17:48.644Z,100438.56
2023-05-14T07:20:15.594Z,100395.00
2023-05-14T07:22:42.439Z,100420.69
2023-05-14T07:25:09.436Z,100455.78
2023-05-14T07:27:36.242Z,100404.09
2023-05-14T07:30:02.981Z,100350.34
2023-05-14T07:32:29.852Z,100451.63
2023-05-14T07:34:57.480Z,100401.78
2023-05-14T07:37:26.037Z,100411.44
2023-05-14T07:39:53.985Z,100435.59
2023-05-14T07:42:34.399Z,100441.47
2023-05-14T07:45:02.599Z,100392.31
2023-05-14T07:47:29.689Z,100323.81
2023-05-14T07:49:57.718Z,100419.94
2023-05-14T07:52:26.394Z,100381.13
2023-05-14T07:54:53.612Z,100413.16
2023-05-14T07:57:20.547Z,100414.78
2023-05-14T07:59:48.497Z,100423.53
2023-05-14T08:02:17.856Z,100410.66
2023-05-14T08:04:45.089Z,100392.50
2023-05-14T08:07:11.901Z,100427.41
2023-05-14T08:09:39.088Z,100366.38
2023-05-14T08:12:06.781Z,100368.00
2023-05-14T08:14:33.623Z,100417.03
2023-05-14T08:17:00.690Z,100407.91
2023-05-14T08:19:28.056Z,100352.78
2023-05-14T08:21:54.796Z,100352.94
2023-05-14T08:24:22.604Z,100351.81
2023-05-14T08:26:49.600Z,100306.81
2023-05-14T08:29:16.921Z,100399.19
2023-05-14T08:31:44.119Z,100335.09
2023-05-14T08:34:11.033Z,100390.09
2023-05-14T08:36:39.042Z,100384.41
2023-05-14T08:39:08.016Z,100411.69
2023-05-14T08:41:35.130Z,100375.84
2023-05-14T08:44:15.844Z,100379.44
2023-05-14T08:46:42.718Z,100313.84
2023-05-14T08:49:30.293Z,100350.28
2023-05-14T08:51:58.748Z,100372.34
2023-05-14T08:54:26.498Z,100324.66
2023-05-14T08:56:53.424Z,100367.47
2023-05-14T08:59:21.466Z,100306.63
2023-05-14T09:01:49.115Z,100328.72
2023-05-14T09:04:16.559Z,100304.69
2023-05-14T09:06:43.862Z,100307.81
2023-05-14T09:09:11.780Z,100288.69
2023-05-14T09:11:42.853Z,100345.59
2023-05-14T09:14:10.268Z,100262.38
2023-05-14T09:16:37.446Z,100335.56
2023-05-14T09:19:07.640Z,100385.31
2023-05-14T09:21:35.272Z,100364.56
2023-05-14T09:24:02.155Z,100339.00
2023-05-14T09:26:31.618Z,100349.50
2023-05-14T09:29:04.670Z,100282.41
2023-05-14T09:31:33.137Z,100300.91
2023-05-14T09:34:00.682Z,100329.28
2023-05-14T09:36:27.690Z,100291.72
2023-05-14T09:38:58.346Z,100307.75
2023-05-14T09:41:25.728Z,100256.63
2023-05-14T09:43:52.869Z,100352.84
2023-05-14T09:46:19.720Z,100311.97
2023-05-14T09:48:46.813Z,100341.34
2023-05-14T09:51:16.081Z,100334.69
2023-05-14T09:53:46.525Z,100356.56
2023-05-14T09:56:14.953Z,100371.16
2023-05-14T09:58:42.189Z,100325.13
2023-05-14T10:01:09.181Z,100359.53
2023-05-14T10:03:36.755Z,100311.84
2023-05-14T10:06:08.652Z,100327.13
2023-05-14T10:08:41.456Z,100291.78
2023-05-14T10:11:12.422Z,100296.03
2023-05-14T10:13:41.496Z,100278.84
2023-05-14T10:16:30.140Z,100335.44
2023-05-14T10:19:00.293Z,100302.50
2023-05-14T10:21:30.956Z,100303.53
2023-05-14T10:23:59.922Z,100304.97
2023-05-14T10:26:26.928Z,100248.75
2023-05-14T10:28:56.342Z,100294.13
2023-05-14T10:31:45.785Z,100279.53
2023-05-14T10:34:31.907Z,100350.88
2023-05-14T10:37:02.398Z,100372.75
2023-05-14T10:39:41.889Z,100368.06
2023-05-14T10:42:08.989Z,100366.44
2023-05-14T10:44:35.925Z,100366.44
2023-05-14T10:47:03.342Z,100362.56
2023-05-14T10:49:42.948Z,100356.09
2023-05-14T10:52:11.258Z,100348.25
2023-05-14T10:54:38.290Z,100353.16
2023-05-14T10:57:09.905Z,100348.63
2023-05-14T10:59:36.650Z,100352.88
2023-05-14T11:02:05.545Z,100344.75
2023-05-14T11:04:32.314Z,100353.66
2023-05-14T11:06:58.960Z,100347.38
2023-05-14T11:09:25.600Z,100349.59
2023-05-14T11:11:52.216Z,100336.38
2023-05-14T11:14:19.549Z,100338.78
2023-05-14T11:16:46.290Z,100343.47
2023-05-14T11:19:13.156Z,100342.84
2023-05-14T11:21:39.945Z,100337.50
2023-05-14T11:24:07.465Z,100339.13
2023-05-14T11:26:34.327Z,100334.41
2023-05-14T11:29:01.055Z,100341.56
2023-05-14T11:31:27.915Z,100340.56
2023-05-14T11:33:54.617Z,100342.03
2023-05-14T11:36:21.874Z,100336.38
2023-05-14T11:38:49.024Z,100342.38
2023-05-14T11:41:16.131Z,100334.59
2023-05-14T11:43:42.961Z,100333.94
2023-05-14T11:46:16.331Z,100341.91
2023-05-14T11:48:43.001Z,100329.25
2023-05-14T11:51:09.601Z,100328.63
2023-05-14T11:53:36.416Z,100325.88
2023-05-14T11:56:03.102Z,100318.09
2023-05-14T11:58:32.521Z,100317.63
2023-05-14T12:00:59.296Z,100320.38
2023-05-14T12:03:26.880Z,100314.56
2023-05-14T12:06:00.270Z,100316.97
2023-05-14T12:08:30.760Z,100308.59
2023-05-14T12:11:00.703Z,100303.72
2023-05-14T12:13:28.178Z,100306.13
2023-05-14T12:15:56.551Z,100300.00
2023-05-14T12:18:27.641Z,100295.47
2023-05-14T12:20:54.359Z,100287.69
2023-05-14T12:23:27.842Z,100293.06
2023-05-14T12:25:54.535Z,100286.25
2023-05-14T12:28:23.221Z,100280.91
2023-05-14T12:30:56.406Z,100267.47
2023-05-14T12:33:23.830Z,100280.56
2023-05-14T12:35:50.412Z,100277.19
2023-05-14T12:38:17.109Z,100277.00
2023-05-14T12:40:43.759Z,100277.81
2023-05-14T12:43:10.394Z,100283.47
2023-05-14T12:45:37.077Z,100270.88
2023-05-14T12:48:03.817Z,100272.47
2023-05-14T12:50:30.439Z,100267.81
2023-05-14T12:52:57.814Z,100261.47
2023-05-14T12:55:24.548Z,100263.75
2023-05-14T12:57:51.271Z,100259.84
2023-05-14T13:00:18.125Z,100259.69
2023-05-14T13:02:44.909Z,100254.03
2023-05-14T13:05:12.023Z,100253.53
2023-05-14T13:07:38.865Z,100252.41
2023-05-14T13:10:06.100Z,100241.56
2023-05-14T13:12:32.871Z,100245.94
2023-05-14T13:14:59.570Z,100242.84
2023-05-14T13:17:26.320Z,100242.34
2023-05-14T13:19:53.073Z,100242.84
2023-05-14T13:22:20.024Z,100241.25
2023-05-14T13:24:46.793Z,100238.81
2023-05-14T13:27:13.404Z,100236.06
2023-05-14T13:29:40.059Z,100229.91
2023-05-14T13:32:07.011Z,100235.28
2023-05-14T13:34:33.921Z,100234.28
2023-05-14T13:37:00.478Z,100217.94
2023-05-14T13:39:27.330Z,100210.00
2023-05-14T13:41:57.142Z,100220.53
2023-05-14T13:44:24.305Z,100213.72
2023-05-14T13:46:51.235Z,100212.09
2023-05-14T13:49:17.988Z,100210.78
2023-05-14T13:51:44.838Z,100204.16
2023-05-14T13:54:11.502Z,100198.84
2023-05-14T13:56:38.089Z,100192.34
2023-05-14T13:59:04.746Z,100173.06
2023-05-14T14:01:31.745Z,100176.63
2023-05-14T14:03:58.544Z,100173.41
2023-05-14T14:06:26.227Z,100178.59
2023-05-14T14:08:53.197Z,100171.59
2023-05-14T14:11:19.808Z,100172.56
2023-05-14T14:13:46.860Z,100179.03
2023-05-14T14:16:13.722Z,100152.47
2023-05-14T14:18:40.568Z,100160.22
2023-05-14T14:21:07.251Z,100155.84
2023-05-14T14:23:33.870Z,100168.97
2023-05-14T14:26:00.794Z,100151.34
2023-05-14T14:28:27.458Z,100156.19
2023-05-14T14:30:54.131Z,100153.91
2023-05-14T14:33:20.797Z,100158.09
2023-05-14T14:35:47.431Z,100159.75
2023-05-14T14:38:14.530Z,100164.09
2023-05-14T14:40:41.207Z,100152.59
2023-05-14T14:43:07.823Z,100132.09
2023-05-14T14:45:34.638Z,100150.19
2023-05-14T14:48:27.068Z,100154.03
2023-05-14T14:50:54.327Z,100156.84
2023-05-14T14:53:21.657Z,100141.63
2023-05-14T14:55:48.857Z,100145.97
2023-05-14T14:58:15.608Z,100144.53
2023-05-14T15:00:42.338Z,100139.53
2023-05-14T15:03:09.876Z,100145.19
2023-05-14T15:05:36.624Z,100137.06
2023-05-14T15:08:03.741Z,100136.56
2023-05-14T15:10:31.032Z,100136.56
2023-05-14T15:12:58.699Z,100145.31
2023-05-14T15:15:26.190Z,100137.38
2023-05-14T15:17:52.904Z,100147.06
2023-05-14T15:20:19.556Z,100144.16
2023-05-14T15:22:46.191Z,100145.63
2023-05-14T15:25:12.819Z,100139.44
2023-05-14T15:27:42.291Z,100144.16
2023-05-14T15:30:09.359Z,100141.06
2023-05-14T15:32:36.232Z,100144.16
2023-05-14T15:35:03.011Z,100134.41
2023-05-14T15:37:38.047Z,100134.22
2023-05-14T15:40:07.880Z,100134.22
2023-05-14T15:42:36.183Z,100126.09
2023-05-14T15:45:02.835Z,100131.28
2023-05-14T15:47:29.558Z,100135.66
2023-05-14T15:49:56.307Z,100128.06
2023-05-14T15:52:23.007Z,100129.66
2023-05-14T15:54:49.927Z,100117.84
2023-05-14T15:57:17.899Z,100137.59
2023-05-14T15:59:46.956Z,100129.66
2023-05-14T16:02:14.089Z,100127.25
2023-05-14T16:04:40.753Z,100122.53
2023-05-14T16:07:10.880Z,100123.50
2023-05-14T16:09:38.146Z,100124.66
2023-05-14T16:12:05.880Z,100110.88
2023-05-14T16:14:33.701Z,100110.38
2023-05-14T16:17:00.517Z,100107.00
2023-05-14T16:19:27.183Z,100102.00
2023-05-14T16:21:53.878Z,100092.41
2023-05-14T16:24:20.636Z,100099.56
2023-05-14T16:26:47.381Z,100079.97
2023-05-14T16:29:13.958Z,100088.69
2023-05-14T16:31:40.817Z,100090.28
2023-05-14T16:34:07.522Z,100094.34
2023-05-14T16:36:34.267Z,100099.84
2023-05-14T16:41:30.980Z,100093.84
2023-05-14T16:43:57.692Z,100094.84
2023-05-14T16:46:24.514Z,100107.34
2023-05-14T16:48:51.220Z,100085.41
2023-05-14T16:51:17.861Z,100101.53
2023-05-14T16:53:44.530Z,100108.53
2023-05-14T16:56:11.132Z,100094.44
2023-05-14T16:58:37.920Z,100093.75
2023-05-14T17:01:06.294Z,100097.66
2023-05-14T17:03:34.048Z,100093.75
2023-05-14T17:06:00.728Z,100105.06
2023-05-14T17:08:32.327Z,100103.94
2023-05-14T17:10:59.240Z,100107.00
2023-05-14T17:13:26.124Z,100113.13
2023-05-14T17:15:52.938Z,100108.28
2023-05-14T17:18:19.719Z,100105.06
2023-05-14T17:20:46.404Z,100111.53
2023-05-14T17:23:13.538Z,100105.06
2023-05-14T17:25:40.204Z,100109.44
2023-05-14T17:28:06.906Z,100107.84
2023-05-14T17:30:33.557Z,100088.75
2023-05-14T17:33:00.468Z,100102.63
2023-05-14T17:35:27.241Z,100106.53
2023-05-14T17:37:54.065Z,100116.09
2023-05-14T17:40:20.735Z,100106.69
2023-05-14T17:42:47.986Z,100116.91
2023-05-14T17:45:15.611Z,100109.88
2023-05-14T17:47:42.415Z,100113.47
2023-05-14T17:50:09.510Z,100113.13
2023-05-14T17:52:37.736Z,100121.41
2023-05-14T17:55:04.697Z,100117.03
2023-05-14T17:57:31.473Z,100113.78
2023-05-14T17:59:58.250Z,100121.59
2023-05-14T18:02:24.975Z,100116.75
2023-05-14T18:04:51.838Z,100122.25
2023-05-14T18:07:19.170Z,100120.47
2023-05-14T18:09:45.916Z,100119.69
2023-05-14T18:12:12.663Z,100117.94
2023-05-14T18:14:39.325Z,100125.84
2023-05-14T18:17:06.547Z,100117.78
2023-05-14T18:19:33.636Z,100129.59
2023-05-14T18:22:00.467Z,100128.31
2023-05-14T18:24:27.261Z,100133.81
2023-05-14T18:26:54.478Z,100135.09
2023-05-14T18:29:21.153Z,100134.31
2023-05-14T18:31:47.788Z,100137.38
2023-05-14T18:34:14.478Z,100136.72
2023-05-14T18:36:41.208Z,100133.16
2023-05-14T18:39:07.935Z,100140.63
2023-05-14T18:41:34.646Z,100142.22
2023-05-14T18:44:02.319Z,100145.47
2023-05-14T18:46:29.091Z,100136.41
2023-05-14T18:48:56.176Z,100139.97
2023-05-14T18:51:22.956Z,100140.94
2023-05-14T18:53:49.698Z,100134.97
2023-05-14T18:56:16.430Z,100147.06
2023-05-14T18:58:43.110Z,100150.97
2023-05-14T19:01:09.852Z,100155.69
2023-05-14T19:03:36.626Z,100150.34
2023-05-14T19:06:03.551Z,100152.59
2023-05-14T19:08:30.456Z,100162.31
2023-05-14T19:10:57.153Z,100156.34
2023-05-14T19:13:23.904Z,100153.09
2023-05-14T19:15:50.771Z,100167.34
2023-05-14T19:18:17.798Z,100163.44
2023-05-14T19:20:46.605Z,100143.25
2023-05-14T19:23:13.691Z,100163.44
2023-05-14T19:25:40.424Z,100161.84
2023-05-14T19:28:07.146Z,100169.09
2023-05-14T19:30:33.960Z,100156.78
2023-05-14T19:33:00.709Z,100166.69
2023-05-14T19:35:27.622Z,100154.91
2023-05-14T19:37:54.470Z,100173.19
2023-05-14T19:40:21.206Z,100170.56
2023-05-14T19:42:47.853Z,100167.97
2023-05-14T19:45:14.658Z,100164.41
2023-05-14T19:47:41.652Z,100167.97
2023-05-14T19:50:09.183Z,100168.09
2023-05-14T19:52:35.986Z,100169.75
2023-05-14T19:55:02.677Z,100161.84
2023-05-14T19:57:29.549Z,100173.16
2023-05-14T19:59:56.261Z,100178.00
2023-05-14T20:02:23.125Z,100187.72
2023-05-14T20:04:49.798Z,100187.72
2023-05-14T20:07:17.844Z,100180.94
2023-05-14T20:09:46.301Z,100182.56
2023-05-14T20:12:14.034Z,100196.00
2023-05-14T20:14:41.506Z,100184.16
2023-05-14T20:17:08.346Z,100188.88
2023-05-14T20:19:35.790Z,100180.13
2023-05-14T20:22:02.607Z,100184.16
2023-05-14T20:24:29.274Z,100171.06
2023-05-14T20:26:56.800Z,100151.00
2023-05-14T20:29:23.682Z,100168.31
2023-05-14T20:31:50.459Z,100168.97
2023-05-14T20:34:17.130Z,100159.41
2023-05-14T20:36:43.760Z,100166.69
2023-05-14T20:39:11.733Z,100152.44
2023-05-14T20:41:38.339Z,100152.09
2023-05-14T20:44:05.131Z,100138.84
2023-05-14T20:46:31.853Z,100153.75
2023-05-14T20:48:59.932Z,100147.44
2023-05-14T20:51:26.651Z,100162.06
2023-05-14T20:53:53.362Z,100160.28
2023-05-14T20:56:20.045Z,100164.97
2023-05-14T20:58:46.752Z,100172.91
2023-05-14T21:01:13.385Z,100163.22
2023-05-14T21:03:40.292Z,100170.16
2023-05-14T21:06:07.082Z,100167.22
2023-05-14T21:08:34.962Z,100165.63
2023-05-14T21:11:01.612Z,100162.56
2023-05-14T21:13:28.223Z,100170.31
2023-05-14T21:15:54.863Z,100160.47
2023-05-14T21:18:21.543Z,100168.72
2023-05-14T21:20:48.210Z,100164.00
2023-05-14T21:23:14.928Z,100162.72
2023-05-14T21:25:41.572Z,100165.31
2023-05-14T21:28:08.187Z,100158.50
2023-05-14T21:30:35.012Z,100163.38
2023-05-14T21:33:01.766Z,100157.38
2023-05-14T21:35:28.421Z,100153.31
2023-05-14T21:37:55.064Z,100157.72
2023-05-14T21:40:21.716Z,100148.31
2023-05-14T21:42:48.408Z,100135.53
2023-05-14T21:45:15.247Z,100132.44
2023-05-14T21:47:42.087Z,100137.94
2023-05-14T21:50:09.258Z,100149.91
2023-05-14T21:52:37.850Z,100143.13
2023-05-14T21:55:04.891Z,100145.06
2023-05-14T21:57:34.248Z,100147.81
2023-05-14T22:00:01.377Z,100149.75
2023-05-14T22:02:28.130Z,100139.22
2023-05-14T22:04:54.790Z,100142.50
2023-05-14T22:07:21.422Z,100148.50
2023-05-14T22:09:48.227Z,100138.28
2023-05-14T22:12:15.019Z,100131.47
2023-05-14T22:14:41.957Z,100137.47
2023-05-14T22:17:08.611Z,100134.72
2023-05-14T22:19:35.337Z,100141.34
2023-05-14T22:22:01.960Z,100135.34
2023-05-14T22:24:28.581Z,100128.06
2023-05-14T22:26:55.191Z,100127.41
2023-05-14T22:29:21.920Z,100127.91
2023-05-14T22:31:48.731Z,100131.47
2023-05-14T22:34:15.501Z,100127.59
2023-05-14T22:36:42.150Z,100127.59
2023-05-14T22:39:09.721Z,100126.59
2023-05-14T22:41:37.936Z,100126.59
2023-05-14T22:44:04.579Z,100113.34
2023-05-14T22:46:31.243Z,100130.81
2023-05-14T22:48:57.921Z,100127.25
2023-05-14T22:51:24.615Z,100124.00
2023-05-14T22:53:51.251Z,100111.09
2023-05-14T22:56:18.173Z,100107.19
2023-05-14T22:58:44.781Z,100112.69
2023-05-14T23:01:11.360Z,100117.84
2023-05-14T23:03:37.969Z,100121.25
2023-05-14T23:06:04.672Z,100113.69
2023-05-14T23:08:31.294Z,100116.09
2023-05-14T23:10:57.874Z,100116.91
2023-05-14T23:13:24.447Z,100118.03
2023-05-14T23:15:51.189Z,100124.69
2023-05-14T23:18:17.858Z,100106.88
2023-05-14T23:20:44.606Z,100114.34
2023-05-14T23:23:11.212Z,100123.06
2023-05-14T23:25:37.940Z,100120.31
2023-05-14T23:28:04.576Z,100123.72
2023-05-14T23:30:31.187Z,100123.72
2023-05-14T23:32:57.860Z,100118.06
2023-05-14T23:35:24.903Z,100104.13
2023-05-14T23:37:51.735Z,100110.59
2023-05-14T23:40:18.299Z,100109.50
2023-05-14T23:42:44.946Z,100106.38
2023-05-14T23:45:12.592Z,100105.59
2023-05-14T23:47:39.591Z,100108.84
2023-05-14T23:50:06.553Z,100107.03
2023-05-14T23:52:33.446Z,100097.53
2023-05-14T23:55:00.555Z,100100.75
2023-05-14T23:57:27.178Z,100104.44
2023-05-14T23:59:53.719Z,100096.84
